createdAt,value
2022-12-26T06:59:54.280Z,11.51
2022-12-26T07:00:54.361Z,11.43
2022-12-26T07:01:54.342Z,11.46
2022-12-26T07:02:54.269Z,11.39
2022-12-26T07:03:54.217Z,11.39
2022-12-26T07:04:54.226Z,11.47
2022-12-26T07:05:54.180Z,11.40
2022-12-26T07:06:54.170Z,11.44
2022-12-26T07:07:54.170Z,11.44
2022-12-26T07:08:54.160Z,11.40
2022-12-26T07:09:54.221Z,11.37
2022-12-26T07:10:54.128Z,11.37
2022-12-26T07:11:54.123Z,11.39
2022-12-26T07:12:54.109Z,11.40
2022-12-26T07:13:54.098Z,11.33
2022-12-26T07:14:59.676Z,11.43
2022-12-26T07:15:55.173Z,11.40
2022-12-26T07:16:54.125Z,11.40
2022-12-26T07:17:54.068Z,11.40
2022-12-26T07:18:54.052Z,11.42
2022-12-26T07:19:54.055Z,11.32
2022-12-26T07:20:54.026Z,11.37
2022-12-26T07:21:54.047Z,11.33
2022-12-26T07:22:53.999Z,11.35
2022-12-26T07:23:53.994Z,11.32
2022-12-26T07:24:54.016Z,11.29
2022-12-26T07:25:53.969Z,11.39
2022-12-26T07:26:53.977Z,11.33
2022-12-26T07:27:53.980Z,11.21
2022-12-26T07:28:53.943Z,11.27
2022-12-26T07:29:53.932Z,11.29
2022-12-26T07:30:53.928Z,11.18
2022-12-26T07:31:54.017Z,11.25
2022-12-26T07:32:53.889Z,11.25
2022-12-26T07:33:53.903Z,11.19
2022-12-26T07:34:53.884Z,11.19
2022-12-26T07:35:53.871Z,11.17
2022-12-26T07:36:53.867Z,11.19
2022-12-26T07:37:53.844Z,11.10
2022-12-26T07:38:53.823Z,11.14
2022-12-26T07:39:58.971Z,11.11
2022-12-26T07:40:54.834Z,11.18
2022-12-26T07:41:53.797Z,11.10
2022-12-26T07:42:53.799Z,11.00
2022-12-26T07:43:53.771Z,11.04
2022-12-26T07:44:53.764Z,11.07
2022-12-26T07:45:53.814Z,11.18
2022-12-26T07:46:53.741Z,11.15
2022-12-26T07:47:53.763Z,11.11
2022-12-26T07:48:53.734Z,11.10
2022-12-26T07:49:53.728Z,11.06
2022-12-26T07:50:53.694Z,11.07
2022-12-26T07:51:53.728Z,11.11
2022-12-26T07:52:53.683Z,11.10
2022-12-26T07:53:53.698Z,11.09
2022-12-26T07:54:53.695Z,11.15
2022-12-26T07:55:53.645Z,11.11
2022-12-26T07:57:03.888Z,11.11
2022-12-26T07:57:54.692Z,11.15
2022-12-26T07:58:53.627Z,11.09
2022-12-26T07:59:53.963Z,11.14
2022-12-26T08:00:53.672Z,11.10
2022-12-26T08:01:53.840Z,11.15
2022-12-26T08:02:53.769Z,11.10
2022-12-26T08:03:53.722Z,11.10
2022-12-26T08:04:53.556Z,11.15
2022-12-26T08:05:53.533Z,11.04
2022-12-26T08:06:53.547Z,11.17
2022-12-26T08:07:53.543Z,11.07
2022-12-26T08:08:53.532Z,11.07
2022-12-26T08:09:53.557Z,11.06
2022-12-26T08:10:53.483Z,11.10
2022-12-26T08:11:53.488Z,11.07
2022-12-26T08:12:53.464Z,11.06
2022-12-26T08:13:53.469Z,11.10
2022-12-26T08:14:53.439Z,11.06
2022-12-26T08:15:53.471Z,11.06
2022-12-26T08:16:53.877Z,11.10
2022-12-26T08:17:53.414Z,11.02
2022-12-26T08:18:53.409Z,11.09
2022-12-26T08:19:53.412Z,11.11
2022-12-26T08:20:53.373Z,11.15
2022-12-26T08:21:53.413Z,11.14
2022-12-26T08:22:53.365Z,11.03
2022-12-26T08:23:53.387Z,11.07
2022-12-26T08:24:53.328Z,11.10
2022-12-26T08:25:53.320Z,11.17
2022-12-26T08:26:53.303Z,11.15
2022-12-26T08:27:53.357Z,11.14
2022-12-26T08:28:53.283Z,11.15
2022-12-26T08:29:53.293Z,11.06
2022-12-26T08:30:53.268Z,11.22
2022-12-26T08:31:53.268Z,11.11
2022-12-26T08:32:53.240Z,11.14
2022-12-26T08:33:53.302Z,11.21
2022-12-26T08:34:53.241Z,11.19
2022-12-26T08:35:53.227Z,11.17
2022-12-26T08:36:53.199Z,11.21
2022-12-26T08:37:53.214Z,11.19
2022-12-26T08:38:53.178Z,11.25
2022-12-26T08:39:53.202Z,11.22
2022-12-26T08:40:53.151Z,11.18
2022-12-26T08:41:53.146Z,11.28
2022-12-26T08:43:12.336Z,11.25
2022-12-26T08:44:54.144Z,11.40
2022-12-26T08:45:53.166Z,11.36
2022-12-26T08:46:53.086Z,11.43
2022-12-26T08:47:53.082Z,11.39
2022-12-26T08:48:53.091Z,11.44
2022-12-26T08:49:53.058Z,11.46
2022-12-26T08:50:53.062Z,11.49
2022-12-26T08:51:53.074Z,11.52
2022-12-26T08:52:53.022Z,11.52
2022-12-26T08:53:53.019Z,11.51
2022-12-26T08:54:53.030Z,11.58
2022-12-26T08:55:52.998Z,11.65
2022-12-26T08:56:52.985Z,11.57
2022-12-26T08:57:52.998Z,11.65
2022-12-26T08:58:52.980Z,11.65
2022-12-26T08:59:52.952Z,11.67
2022-12-26T09:00:55.476Z,11.60
2022-12-26T09:01:53.015Z,11.69
2022-12-26T09:02:53.183Z,11.73
2022-12-26T09:03:52.902Z,11.64
2022-12-26T09:04:52.913Z,11.61
2022-12-26T09:05:52.884Z,11.67
2022-12-26T09:06:52.870Z,11.75
2022-12-26T09:07:52.879Z,11.70
2022-12-26T09:08:52.907Z,11.65
2022-12-26T09:09:52.836Z,11.65
2022-12-26T09:10:52.839Z,11.65
2022-12-26T09:11:52.821Z,11.61
2022-12-26T09:12:52.806Z,11.75
2022-12-26T09:13:52.802Z,11.70
2022-12-26T09:14:52.846Z,11.67
2022-12-26T09:15:52.775Z,11.67
2022-12-26T09:16:52.911Z,11.79
2022-12-26T09:17:52.750Z,11.88
2022-12-26T09:18:52.748Z,11.76
2022-12-26T09:19:52.731Z,11.79
2022-12-26T09:20:52.770Z,11.82
2022-12-26T09:21:52.718Z,11.85
2022-12-26T09:22:52.718Z,11.98
2022-12-26T09:23:52.702Z,11.91
2022-12-26T09:24:52.676Z,11.96
2022-12-26T09:25:52.681Z,11.99
2022-12-26T09:26:52.701Z,12.09
2022-12-26T09:27:58.599Z,12.07
2022-12-26T09:28:53.629Z,12.13
2022-12-26T09:29:52.630Z,12.14
2022-12-26T09:30:52.619Z,12.13
2022-12-26T09:31:52.612Z,12.09
2022-12-26T09:32:52.613Z,12.21
2022-12-26T09:33:52.583Z,12.24
2022-12-26T09:34:52.565Z,12.21
2022-12-26T09:35:52.552Z,12.16
2022-12-26T09:36:52.537Z,12.20
2022-12-26T09:37:52.548Z,12.24
2022-12-26T09:38:52.607Z,12.28
2022-12-26T09:39:52.526Z,12.31
2022-12-26T09:40:52.493Z,12.39
2022-12-26T09:41:52.489Z,12.32
2022-12-26T09:42:52.504Z,12.29
2022-12-26T09:43:52.472Z,12.27
2022-12-26T09:44:52.490Z,12.41
2022-12-26T09:45:52.473Z,12.38
2022-12-26T09:46:52.428Z,12.42
2022-12-26T09:47:52.457Z,12.42
2022-12-26T09:48:52.414Z,12.38
2022-12-26T09:49:52.399Z,12.34
2022-12-26T09:50:52.447Z,12.29
2022-12-26T09:51:52.377Z,12.32
2022-12-26T09:52:52.410Z,12.39
2022-12-26T09:53:52.380Z,12.39
2022-12-26T09:54:52.377Z,12.53
2022-12-26T09:55:52.353Z,12.41
2022-12-26T09:57:02.407Z,12.41
2022-12-26T09:57:53.326Z,12.39
2022-12-26T09:58:52.308Z,12.41
2022-12-26T09:59:52.488Z,12.49
2022-12-26T10:00:52.285Z,12.57
2022-12-26T10:01:52.358Z,12.70
2022-12-26T10:02:52.323Z,12.83
2022-12-26T10:03:52.252Z,12.85
2022-12-26T10:04:52.304Z,12.92
2022-12-26T10:05:52.252Z,12.87
2022-12-26T10:06:52.223Z,12.96
2022-12-26T10:07:52.209Z,12.86
2022-12-26T10:08:52.221Z,12.92
2022-12-26T10:09:52.205Z,13.00
2022-12-26T10:10:52.175Z,12.95
2022-12-26T10:11:52.205Z,12.97
2022-12-26T10:12:52.164Z,12.97
2022-12-26T10:13:52.148Z,13.04
2022-12-26T10:14:52.183Z,13.05
2022-12-26T10:15:52.238Z,13.03
2022-12-26T10:16:52.114Z,13.10
2022-12-26T10:17:52.101Z,13.10
2022-12-26T10:18:52.095Z,13.11
2022-12-26T10:19:52.083Z,13.19
2022-12-26T10:20:52.159Z,13.17
2022-12-26T10:21:52.080Z,13.22
2022-12-26T10:22:52.070Z,13.12
2022-12-26T10:23:52.056Z,13.14
2022-12-26T10:24:52.092Z,13.23
2022-12-26T10:25:52.059Z,13.08
2022-12-26T10:26:52.059Z,13.19
2022-12-26T10:27:52.019Z,13.19
2022-12-26T10:28:52.023Z,13.26
2022-12-26T10:29:52.008Z,13.23
2022-12-26T10:30:52.037Z,13.14
2022-12-26T10:31:51.962Z,13.17
2022-12-26T10:32:51.998Z,13.15
2022-12-26T10:33:51.945Z,13.17
2022-12-26T10:34:51.929Z,13.22
2022-12-26T10:35:51.939Z,13.15
2022-12-26T10:36:51.920Z,13.19
2022-12-26T10:37:51.900Z,13.15
2022-12-26T10:38:51.954Z,13.11
2022-12-26T10:39:51.913Z,13.11
2022-12-26T10:40:51.860Z,13.15
2022-12-26T10:41:51.878Z,13.11
2022-12-26T10:42:51.902Z,13.08
2022-12-26T10:43:51.852Z,13.12
2022-12-26T10:44:51.878Z,13.10
2022-12-26T10:45:51.845Z,13.20
2022-12-26T10:46:51.812Z,13.17
2022-12-26T10:47:51.792Z,13.25
2022-12-26T10:48:51.777Z,13.25
2022-12-26T10:49:51.795Z,13.28
2022-12-26T10:50:51.813Z,13.11
2022-12-26T10:51:51.739Z,13.25
2022-12-26T10:52:51.742Z,13.23
2022-12-26T10:53:51.748Z,13.25
2022-12-26T10:54:51.704Z,13.26
2022-12-26T10:55:52.723Z,13.36
2022-12-26T10:56:51.734Z,13.28
2022-12-26T10:57:51.679Z,13.38
2022-12-26T10:58:51.669Z,13.30
2022-12-26T10:59:51.740Z,13.36
2022-12-26T11:00:51.654Z,13.25
2022-12-26T11:01:51.801Z,13.25
2022-12-26T11:02:51.827Z,13.25
2022-12-26T11:03:51.697Z,13.29
2022-12-26T11:05:15.526Z,13.38
2022-12-26T11:06:09.206Z,13.32
2022-12-26T11:06:52.686Z,13.26
2022-12-26T11:07:51.574Z,13.28
2022-12-26T11:08:51.629Z,13.30
2022-12-26T11:09:51.543Z,13.26
2022-12-26T11:10:51.534Z,13.23
2022-12-26T11:11:51.541Z,13.29
2022-12-26T11:14:02.996Z,13.45
2022-12-26T11:15:01.704Z,13.44
2022-12-26T11:16:01.753Z,13.32
2022-12-26T11:17:01.692Z,13.38
2022-12-26T11:18:01.674Z,13.41
2022-12-26T11:19:01.701Z,13.38
2022-12-26T11:20:01.660Z,13.38
2022-12-26T11:21:01.642Z,13.39
2022-12-26T11:22:01.615Z,13.41
2022-12-26T11:23:01.612Z,13.32
2022-12-26T11:24:01.614Z,13.39
2022-12-26T11:25:01.655Z,13.33
2022-12-26T11:26:01.572Z,13.38
2022-12-26T11:27:01.567Z,13.42
2022-12-26T11:28:01.546Z,13.30
2022-12-26T11:29:01.543Z,13.39
2022-12-26T11:30:01.565Z,13.45
2022-12-26T11:31:01.606Z,13.38
2022-12-26T11:32:01.519Z,13.39
2022-12-26T11:33:01.481Z,13.42
2022-12-26T11:34:01.480Z,13.54
2022-12-26T11:35:01.483Z,13.55
2022-12-26T11:36:01.468Z,13.46
2022-12-26T11:37:01.497Z,13.44
2022-12-26T11:38:01.431Z,13.36
2022-12-26T11:39:01.417Z,13.32
2022-12-26T11:40:01.414Z,13.36
2022-12-26T11:41:01.412Z,13.32
2022-12-26T11:42:01.442Z,13.38
2022-12-26T11:43:01.367Z,13.32
2022-12-26T11:44:01.367Z,13.32
2022-12-26T11:45:01.364Z,13.30
2022-12-26T11:46:01.348Z,13.25
2022-12-26T11:47:01.344Z,13.28
2022-12-26T11:48:01.392Z,13.20
2022-12-26T11:49:01.307Z,13.15
2022-12-26T11:50:01.303Z,13.15
2022-12-26T11:51:01.284Z,13.15
2022-12-26T11:52:01.278Z,13.05
2022-12-26T11:53:01.308Z,13.12
2022-12-26T11:54:01.309Z,13.14
2022-12-26T11:55:01.242Z,13.08
2022-12-26T11:56:01.246Z,13.12
2022-12-26T11:57:01.263Z,13.10
2022-12-26T11:58:01.255Z,13.04
2022-12-26T11:59:01.199Z,13.11
2022-12-26T12:00:01.223Z,13.05
2022-12-26T12:01:01.185Z,13.04
2022-12-26T12:02:01.278Z,13.00
2022-12-26T12:03:01.232Z,12.93
2022-12-26T12:04:01.164Z,13.05
2022-12-26T12:05:01.133Z,12.93
2022-12-26T12:06:01.167Z,13.04
2022-12-26T12:07:01.121Z,12.95
2022-12-26T12:08:01.169Z,13.00
2022-12-26T12:09:05.811Z,12.95
2022-12-26T12:10:02.088Z,13.01
2022-12-26T12:11:01.064Z,13.05
2022-12-26T12:12:01.116Z,13.07
2022-12-26T12:13:01.057Z,13.01
2022-12-26T12:14:01.047Z,12.95
2022-12-26T12:15:01.032Z,13.00
2022-12-26T12:16:01.064Z,13.03
2022-12-26T12:17:01.018Z,12.96
2022-12-26T12:18:01.047Z,12.89
2022-12-26T12:19:01.094Z,12.92
2022-12-26T12:20:00.975Z,12.90
2022-12-26T12:21:00.961Z,12.95
2022-12-26T12:22:00.951Z,12.83
2022-12-26T12:23:00.975Z,12.78
2022-12-26T12:24:00.981Z,12.87
2022-12-26T12:25:00.932Z,12.82
2022-12-26T12:26:00.908Z,12.79
2022-12-26T12:27:04.919Z,12.71
2022-12-26T12:28:00.966Z,12.70
2022-12-26T12:29:00.868Z,12.70
2022-12-26T12:30:00.924Z,12.68
2022-12-26T12:31:00.841Z,12.64
2022-12-26T12:32:00.897Z,12.53
2022-12-26T12:33:00.853Z,12.56
2022-12-26T12:34:00.817Z,12.45
2022-12-26T12:35:00.820Z,12.56
2022-12-26T12:36:00.853Z,12.42
2022-12-26T12:37:00.792Z,12.39
2022-12-26T12:38:00.820Z,12.50
2022-12-26T12:39:00.776Z,12.42
2022-12-26T12:40:00.751Z,12.38
2022-12-26T12:41:00.756Z,12.41
2022-12-26T12:42:00.794Z,12.34
2022-12-26T12:43:00.743Z,12.37
2022-12-26T12:44:00.706Z,12.38
2022-12-26T12:45:00.699Z,12.37
2022-12-26T12:46:00.733Z,12.38
2022-12-26T12:47:00.732Z,12.41
2022-12-26T12:48:00.710Z,12.42
2022-12-26T12:49:00.683Z,12.39
2022-12-26T12:50:00.658Z,12.38
2022-12-26T12:51:00.650Z,12.39
2022-12-26T12:52:00.618Z,12.41
2022-12-26T12:53:00.648Z,12.37
2022-12-26T12:54:00.644Z,12.45
2022-12-26T12:55:00.626Z,12.35
2022-12-26T12:56:00.611Z,12.34
2022-12-26T12:57:00.567Z,12.39
2022-12-26T12:58:00.557Z,12.32
2022-12-26T12:59:00.579Z,12.27
2022-12-26T13:00:00.559Z,12.27
2022-12-26T13:01:00.630Z,12.37
2022-12-26T13:02:07.066Z,12.28
2022-12-26T13:03:01.687Z,12.32
2022-12-26T13:04:00.488Z,12.32
2022-12-26T13:05:00.497Z,12.24
2022-12-26T13:06:00.531Z,12.24
2022-12-26T13:07:00.469Z,12.29
2022-12-26T13:08:00.442Z,12.32
2022-12-26T13:09:00.437Z,12.27
2022-12-26T13:10:00.435Z,12.31
2022-12-26T13:11:00.428Z,12.31
2022-12-26T13:12:00.434Z,12.17
2022-12-26T13:13:00.404Z,12.28
2022-12-26T13:14:00.383Z,12.28
2022-12-26T13:15:00.371Z,12.20
2022-12-26T13:16:00.396Z,12.14
2022-12-26T13:17:00.386Z,12.21
2022-12-26T13:18:00.333Z,12.19
2022-12-26T13:19:00.321Z,12.17
2022-12-26T13:20:02.541Z,12.16
2022-12-26T13:21:00.331Z,12.10
2022-12-26T13:22:00.293Z,12.12
2022-12-26T13:23:00.302Z,12.07
2022-12-26T13:24:00.278Z,12.04
2022-12-26T13:25:00.269Z,12.05
2022-12-26T13:26:04.621Z,11.95
2022-12-26T13:27:00.252Z,11.91
2022-12-26T13:28:00.236Z,11.96
2022-12-26T13:29:00.249Z,11.76
2022-12-26T13:30:00.221Z,11.85
2022-12-26T13:31:00.212Z,11.85
2022-12-26T13:32:00.423Z,11.91
2022-12-26T13:33:00.209Z,11.86
2022-12-26T13:34:00.193Z,11.83
2022-12-26T13:35:00.179Z,11.85
2022-12-26T13:36:00.138Z,11.85
2022-12-26T13:37:00.191Z,11.85
2022-12-26T13:38:00.126Z,11.76
2022-12-26T13:39:00.145Z,11.91
2022-12-26T13:40:00.184Z,11.86
2022-12-26T13:41:00.104Z,11.98
2022-12-26T13:42:00.130Z,11.91
2022-12-26T13:43:00.125Z,11.99
2022-12-26T13:44:00.039Z,12.01
2022-12-26T13:45:00.112Z,11.99
2022-12-26T13:46:00.111Z,11.94
2022-12-26T13:47:00.029Z,12.01
2022-12-26T13:48:00.035Z,11.90
2022-12-26T13:49:00.036Z,12.02
2022-12-26T13:49:59.985Z,12.02
2022-12-26T13:50:59.965Z,11.94
2022-12-26T13:51:59.986Z,12.01
2022-12-26T13:52:59.973Z,11.90
2022-12-26T13:53:59.936Z,11.95
2022-12-26T13:54:59.968Z,11.95
2022-12-26T13:55:59.908Z,12.02
2022-12-26T13:56:59.952Z,11.95
2022-12-26T13:57:59.912Z,12.02
2022-12-26T13:58:59.887Z,12.02
2022-12-26T13:59:59.887Z,11.98
2022-12-26T14:00:59.972Z,11.95
2022-12-26T14:02:06.037Z,12.10
2022-12-26T14:03:17.780Z,11.99
2022-12-26T14:04:01.021Z,12.05
2022-12-26T14:04:59.909Z,11.98
2022-12-26T14:05:59.792Z,12.01
2022-12-26T14:06:59.808Z,11.99
2022-12-26T14:07:59.791Z,11.98
2022-12-26T14:08:59.806Z,11.98
2022-12-26T14:09:59.752Z,12.01
2022-12-26T14:10:59.777Z,11.82
2022-12-26T14:11:59.763Z,11.96
2022-12-26T14:12:59.775Z,11.94
2022-12-26T14:13:59.709Z,11.94
2022-12-26T14:14:59.724Z,11.95
2022-12-26T14:15:59.696Z,11.88
2022-12-26T14:16:59.743Z,11.94
2022-12-26T14:17:59.704Z,11.86
2022-12-26T14:18:59.678Z,11.90
2022-12-26T14:19:59.641Z,11.88
2022-12-26T14:20:59.677Z,11.88
2022-12-26T14:21:59.638Z,11.95
2022-12-26T14:22:59.615Z,11.94
2022-12-26T14:23:59.609Z,11.91
2022-12-26T14:24:59.599Z,11.88
2022-12-26T14:25:59.665Z,11.95
2022-12-26T14:26:59.591Z,11.65
2022-12-26T14:27:59.563Z,11.61
2022-12-26T14:28:59.572Z,11.39
2022-12-26T14:29:59.535Z,11.33
2022-12-26T14:30:59.627Z,11.24
2022-12-26T14:31:59.548Z,11.10
2022-12-26T14:33:01.698Z,11.02
2022-12-26T14:33:59.505Z,11.02
2022-12-26T14:34:59.483Z,10.96
2022-12-26T14:35:59.465Z,10.94
2022-12-26T14:36:59.471Z,10.76
2022-12-26T14:37:59.441Z,10.78
2022-12-26T14:38:59.533Z,10.73
2022-12-26T14:39:59.425Z,10.60
2022-12-26T14:40:59.449Z,10.55
2022-12-26T14:41:59.414Z,10.52
2022-12-26T14:42:59.415Z,10.52
2022-12-26T14:43:59.395Z,10.55
2022-12-26T14:44:59.374Z,10.53
2022-12-26T14:45:59.545Z,10.47
2022-12-26T14:46:59.359Z,10.34
2022-12-26T14:47:59.352Z,10.40
2022-12-26T14:48:59.328Z,10.27
2022-12-26T14:49:59.308Z,10.34
2022-12-26T14:50:59.353Z,10.26
2022-12-26T14:51:59.362Z,10.30
2022-12-26T14:52:59.414Z,10.26
2022-12-26T14:53:59.296Z,10.33
2022-12-26T14:54:59.289Z,10.23
2022-12-26T14:55:59.247Z,10.23
2022-12-26T14:56:59.267Z,10.04
2022-12-26T14:57:59.273Z,10.11
2022-12-26T14:58:59.254Z,10.09
2022-12-26T15:00:03.411Z,10.07
2022-12-26T15:00:59.291Z,10.07
2022-12-26T15:01:59.329Z,10.07
2022-12-26T15:02:59.248Z,10.05
2022-12-26T15:03:59.185Z,10.12
2022-12-26T15:04:59.163Z,10.05
2022-12-26T15:05:59.137Z,10.15
2022-12-26T15:06:59.131Z,10.15
2022-12-26T15:07:59.147Z,10.17
2022-12-26T15:08:59.161Z,10.17
2022-12-26T15:09:59.097Z,10.14
2022-12-26T15:10:59.213Z,10.23
2022-12-26T15:11:59.127Z,10.18
2022-12-26T15:12:59.457Z,10.17
2022-12-26T15:13:59.055Z,10.23
2022-12-26T15:14:59.063Z,10.22
2022-12-26T15:15:59.150Z,10.22
2022-12-26T15:16:59.033Z,10.25
2022-12-26T15:17:59.048Z,10.23
2022-12-26T15:18:59.017Z,10.17
2022-12-26T15:19:59.004Z,10.17
2022-12-26T15:20:58.985Z,10.26
2022-12-26T15:21:58.998Z,10.27
2022-12-26T15:22:58.993Z,10.20
2022-12-26T15:23:58.943Z,10.05
2022-12-26T15:25:59.909Z,10.11
2022-12-26T15:26:58.932Z,10.01
2022-12-26T15:27:58.963Z,10.07
2022-12-26T15:28:58.936Z,10.08
2022-12-26T15:29:58.875Z,9.97
2022-12-26T15:30:58.972Z,9.96
2022-12-26T15:31:58.852Z,9.81
2022-12-26T15:32:58.851Z,9.72
2022-12-26T15:33:58.884Z,9.60
2022-12-26T15:34:58.829Z,9.71
2022-12-26T15:36:03.146Z,9.57
2022-12-26T15:36:58.825Z,9.60
2022-12-26T15:37:58.848Z,9.60
2022-12-26T15:38:58.776Z,9.65
2022-12-26T15:39:58.767Z,9.61
2022-12-26T15:40:58.782Z,9.47
2022-12-26T15:41:58.768Z,9.40
2022-12-26T15:42:58.739Z,9.42
2022-12-26T15:43:58.730Z,9.38
2022-12-26T15:44:58.715Z,9.40
2022-12-26T15:45:58.755Z,9.36
2022-12-26T15:46:58.741Z,9.39
2022-12-26T15:47:58.694Z,9.38
2022-12-26T15:48:58.682Z,9.28
2022-12-26T15:49:58.666Z,9.38
2022-12-26T15:50:58.662Z,9.35
2022-12-26T15:51:58.656Z,9.18
2022-12-26T15:52:58.663Z,9.08
2022-12-26T15:53:58.642Z,9.04
2022-12-26T15:54:58.604Z,8.98
2022-12-26T15:55:58.609Z,9.02
2022-12-26T15:56:58.580Z,8.96
2022-12-26T15:57:58.582Z,9.11
2022-12-26T15:58:59.499Z,9.20
2022-12-26T15:59:58.580Z,9.11
2022-12-26T16:00:58.539Z,9.26
2022-12-26T16:01:58.678Z,9.23
2022-12-26T16:02:58.711Z,9.21
2022-12-26T16:03:58.500Z,9.29
2022-12-26T16:04:58.519Z,9.32
2022-12-26T16:05:58.501Z,9.28
2022-12-26T16:06:58.512Z,9.23
2022-12-26T16:07:58.457Z,9.11
2022-12-26T16:08:58.452Z,9.14
2022-12-26T16:09:58.461Z,9.10
2022-12-26T16:10:58.459Z,9.08
2022-12-26T16:11:58.413Z,9.10
2022-12-26T16:12:58.454Z,9.11
2022-12-26T16:13:58.418Z,9.05
2022-12-26T16:14:58.413Z,8.98
2022-12-26T16:15:58.407Z,8.94
2022-12-26T16:16:58.376Z,8.95
2022-12-26T16:17:58.374Z,8.98
2022-12-26T16:18:58.365Z,8.83
2022-12-26T16:19:58.329Z,8.76
2022-12-26T16:20:58.347Z,8.77
2022-12-26T16:21:58.323Z,8.74
2022-12-26T16:22:58.308Z,8.71
2022-12-26T16:23:58.289Z,8.76
2022-12-26T16:24:58.312Z,8.73
2022-12-26T16:25:58.291Z,8.77
2022-12-26T16:26:58.250Z,8.76
2022-12-26T16:27:58.243Z,8.70
2022-12-26T16:28:58.249Z,8.65
2022-12-26T16:29:58.213Z,8.73
2022-12-26T16:30:58.281Z,8.63
2022-12-26T16:31:58.221Z,8.61
2022-12-26T16:32:58.209Z,8.52
2022-12-26T16:33:58.180Z,8.47
2022-12-26T16:34:58.203Z,8.59
2022-12-26T16:36:00.978Z,8.56
2022-12-26T16:36:58.171Z,8.62
2022-12-26T16:37:58.145Z,8.53
2022-12-26T16:38:58.138Z,8.52
2022-12-26T16:39:58.107Z,8.52
2022-12-26T16:40:58.102Z,8.59
2022-12-26T16:41:58.088Z,8.48
2022-12-26T16:42:58.106Z,8.52
2022-12-26T16:43:58.078Z,8.53
2022-12-26T16:44:58.058Z,8.47
2022-12-26T16:45:58.096Z,8.55
2022-12-26T16:46:58.101Z,8.59
2022-12-26T16:47:58.022Z,8.59
2022-12-26T16:48:58.045Z,8.58
2022-12-26T16:49:58.045Z,8.59
2022-12-26T16:50:58.036Z,8.62
2022-12-26T16:51:57.974Z,8.58
2022-12-26T16:52:57.971Z,8.56
2022-12-26T16:53:57.967Z,8.53
2022-12-26T16:54:57.983Z,8.56
2022-12-26T16:55:57.964Z,8.59
2022-12-26T16:56:57.925Z,8.45
2022-12-26T16:57:57.911Z,8.36
2022-12-26T16:59:02.831Z,8.45
2022-12-26T16:59:58.996Z,8.23
2022-12-26T17:00:57.903Z,8.30
2022-12-26T17:01:57.972Z,8.10
2022-12-26T17:02:57.965Z,8.29
2022-12-26T17:03:57.845Z,8.12
2022-12-26T17:04:58.723Z,8.11
2022-12-26T17:05:57.820Z,8.05
2022-12-26T17:06:57.875Z,8.07
2022-12-26T17:07:57.804Z,8.12
2022-12-26T17:08:57.800Z,8.15
2022-12-26T17:09:57.832Z,8.12
2022-12-26T17:10:57.772Z,8.15
2022-12-26T17:11:57.769Z,8.19
2022-12-26T17:12:57.800Z,8.07
2022-12-26T17:13:57.826Z,8.15
2022-12-26T17:14:58.390Z,8.07
2022-12-26T17:15:57.779Z,8.10
2022-12-26T17:16:57.730Z,8.11
2022-12-26T17:17:57.732Z,8.11
2022-12-26T17:18:57.683Z,8.10
2022-12-26T17:19:57.702Z,8.18
2022-12-26T17:20:57.689Z,8.10
2022-12-26T17:21:57.665Z,8.05
2022-12-26T17:22:57.668Z,8.04
2022-12-26T17:23:57.659Z,8.10
2022-12-26T17:24:57.625Z,8.12
2022-12-26T17:25:57.605Z,8.11
2022-12-26T17:26:57.596Z,8.10
2022-12-26T17:27:57.604Z,8.19
2022-12-26T17:28:57.582Z,8.33
2022-12-26T17:29:57.592Z,8.26
2022-12-26T17:30:57.593Z,8.23
2022-12-26T17:31:57.537Z,8.22
2022-12-26T17:32:57.552Z,8.05
2022-12-26T17:33:57.525Z,8.12
2022-12-26T17:34:57.512Z,8.12
2022-12-26T17:37:58.496Z,8.04
2022-12-26T17:38:57.485Z,8.08
2022-12-26T17:40:02.588Z,8.15
2022-12-26T17:40:58.441Z,8.00
2022-12-26T17:41:57.458Z,8.07
2022-12-26T17:42:57.437Z,8.15
2022-12-26T17:43:57.421Z,8.01
2022-12-26T17:44:57.401Z,8.15
2022-12-26T17:45:57.392Z,8.02
2022-12-26T17:46:57.462Z,7.98
2022-12-26T17:47:57.431Z,7.98
2022-12-26T17:48:57.356Z,7.98
2022-12-26T17:49:57.388Z,7.85
2022-12-26T17:50:57.331Z,7.97
2022-12-26T17:52:01.771Z,7.89
2022-12-26T17:52:57.356Z,7.80
2022-12-26T17:53:57.316Z,7.83
2022-12-26T17:54:57.310Z,7.83
2022-12-26T17:55:57.291Z,7.80
2022-12-26T17:56:57.266Z,7.86
2022-12-26T17:57:57.280Z,7.90
2022-12-26T17:58:57.275Z,7.83
2022-12-26T17:59:57.255Z,7.71
2022-12-26T18:00:57.244Z,7.69
2022-12-26T18:01:57.367Z,7.71
2022-12-26T18:02:57.303Z,7.75
2022-12-26T18:03:57.197Z,7.71
2022-12-26T18:04:57.181Z,7.82
2022-12-26T18:05:57.203Z,7.74
2022-12-26T18:06:57.187Z,7.67
2022-12-26T18:07:57.150Z,7.63
2022-12-26T18:08:57.136Z,7.60
2022-12-26T18:09:57.135Z,7.68
2022-12-26T18:10:57.131Z,7.57
2022-12-26T18:11:57.135Z,7.57
2022-12-26T18:12:57.118Z,7.55
2022-12-26T18:13:57.088Z,7.64
2022-12-26T18:15:01.772Z,7.69
2022-12-26T18:15:58.124Z,7.68
2022-12-26T18:16:57.057Z,7.60
2022-12-26T18:17:57.071Z,7.57
2022-12-26T18:18:57.044Z,7.53
2022-12-26T18:19:57.063Z,7.49
2022-12-26T18:20:57.001Z,7.45
2022-12-26T18:21:56.994Z,7.32
2022-12-26T18:22:56.985Z,7.28
2022-12-26T18:23:56.998Z,7.24
2022-12-26T18:24:56.969Z,7.30
2022-12-26T18:25:56.979Z,7.27
2022-12-26T18:26:56.962Z,7.27
2022-12-26T18:27:56.929Z,7.27
2022-12-26T18:28:56.939Z,7.21
2022-12-26T18:29:56.910Z,7.10
2022-12-26T18:30:56.903Z,7.16
2022-12-26T18:31:56.956Z,7.17
2022-12-26T18:32:56.880Z,7.16
2022-12-26T18:33:56.904Z,7.05
2022-12-26T18:34:56.860Z,6.98
2022-12-26T18:35:56.866Z,7.12
2022-12-26T18:36:56.840Z,6.95
2022-12-26T18:37:56.865Z,6.91
2022-12-26T18:38:56.810Z,6.97
2022-12-26T18:39:57.049Z,6.95
2022-12-26T18:40:56.810Z,6.98
2022-12-26T18:41:56.776Z,6.99
2022-12-26T18:42:56.796Z,6.92
2022-12-26T18:43:56.780Z,6.85
2022-12-26T18:44:56.752Z,6.99
2022-12-26T18:45:56.795Z,6.98
2022-12-26T18:46:56.767Z,6.91
2022-12-26T18:47:56.735Z,6.85
2022-12-26T18:48:56.855Z,6.80
2022-12-26T18:49:56.724Z,6.84
2022-12-26T18:50:56.690Z,6.79
2022-12-26T18:51:56.676Z,6.81
2022-12-26T18:52:56.658Z,6.88
2022-12-26T18:53:56.653Z,6.73
2022-12-26T18:54:56.661Z,6.73
2022-12-26T18:55:56.670Z,6.62
2022-12-26T18:56:56.627Z,6.51
2022-12-26T18:57:56.600Z,6.54
2022-12-26T18:58:58.182Z,6.52
2022-12-26T18:59:56.585Z,6.55
2022-12-26T19:00:56.603Z,6.58
2022-12-26T19:01:56.630Z,6.55
2022-12-26T19:02:56.562Z,6.58
2022-12-26T19:03:56.568Z,6.58
2022-12-26T19:04:56.542Z,6.59
2022-12-26T19:05:56.525Z,6.56
2022-12-26T19:06:56.519Z,6.61
2022-12-26T19:07:56.560Z,6.64
2022-12-26T19:08:56.477Z,6.56
2022-12-26T19:09:56.471Z,6.52
2022-12-26T19:10:56.459Z,6.51
2022-12-26T19:11:56.560Z,6.52
2022-12-26T19:13:02.902Z,6.38
2022-12-26T19:13:57.444Z,6.34
2022-12-26T19:14:56.437Z,6.30
2022-12-26T19:15:56.440Z,6.22
2022-12-26T19:16:56.397Z,6.37
2022-12-26T19:17:57.407Z,6.27
2022-12-26T19:18:56.506Z,6.27
2022-12-26T19:19:56.355Z,6.21
2022-12-26T19:20:56.352Z,6.11
2022-12-26T19:21:56.408Z,6.18
2022-12-26T19:22:56.355Z,6.22
2022-12-26T19:23:56.327Z,6.19
2022-12-26T19:24:56.333Z,6.19
2022-12-26T19:25:56.299Z,6.25
2022-12-26T19:26:56.281Z,6.19
2022-12-26T19:27:56.879Z,6.18
2022-12-26T19:28:56.280Z,6.09
2022-12-26T19:29:56.268Z,6.01
2022-12-26T19:30:56.467Z,6.12
2022-12-26T19:31:57.019Z,5.96
2022-12-26T19:32:56.233Z,5.99
2022-12-26T19:33:56.213Z,5.94
2022-12-26T19:34:56.228Z,5.94
2022-12-26T19:35:56.186Z,5.99
2022-12-26T19:36:56.173Z,5.99
2022-12-26T19:37:56.252Z,6.09
2022-12-26T19:38:56.154Z,6.12
2022-12-26T19:39:56.147Z,6.08
2022-12-26T19:40:56.130Z,5.96
2022-12-26T19:41:56.417Z,6.03
2022-12-26T19:42:56.117Z,6.03
2022-12-26T19:43:56.143Z,6.00
2022-12-26T19:44:56.089Z,5.91
2022-12-26T19:45:56.145Z,5.93
2022-12-26T19:47:11.837Z,5.85
2022-12-26T19:47:57.257Z,5.94
2022-12-26T19:48:56.051Z,5.85
2022-12-26T19:49:56.061Z,5.82
2022-12-26T19:50:56.057Z,5.90
2022-12-26T19:51:56.030Z,5.85
2022-12-26T19:52:56.018Z,5.83
2022-12-26T19:53:56.036Z,5.65
2022-12-26T19:54:55.995Z,5.75
2022-12-26T19:55:56.002Z,5.79
2022-12-26T19:56:55.964Z,5.72
2022-12-26T19:57:55.972Z,5.72
2022-12-26T19:58:57.153Z,5.74
2022-12-26T19:59:55.935Z,5.67
2022-12-26T20:00:56.000Z,5.75
2022-12-26T20:01:56.096Z,5.65
2022-12-26T20:02:55.980Z,5.71
2022-12-26T20:03:55.907Z,5.71
2022-12-26T20:04:55.919Z,5.65
2022-12-26T20:05:55.865Z,5.72